Here is the Quick Look data you requested

The Data originates at the National Weather Service, and is made available here by the UAlbany Department of Atmospheric and Environmental Sciences

Surface Observations

K8B0 230155Z AUTO 35013G21KT 10SM CLR M14/M21 A3011 RMK AO2=
KAUG 230153Z AUTO 31013G22KT 280V340 10SM CLR M11/M22 A3015 RMK AO2 PK WND
 33032/0100 SLP218 T11061222=
KBGR 230153Z 32019G29KT 10SM CLR M09/M19 A3009 RMK AO2 PK WND 33034/0059 SLP194
 T10941194=
KCAR 230154Z AUTO 33015G22KT 10SM CLR M12/M21 A3003 RMK AO2 PK WND 33027/0059
 SLP184 T11221211=
KFVE 230153Z AUTO 33019G31KT 10SM CLR M14/M23 A3002 RMK AO2 PK WND 33031/0148
 SLP183 T11391228 $=
KGNR 230156Z AUTO 32021G30KT M14/M22 A2999 RMK AO1 PK WND 32033/0135 SLP188
 T11391217=
KHUL 230153Z AUTO 34013G24KT 10SM CLR M12/M20 A3000 RMK AO2 PK WND 33027/0059
 SLP170 T11171200=
KIWI 230153Z AUTO VRB06KT 10SM CLR M09/M21 A3018 RMK AO2 SLP219 T10891211=
KIZG 230154Z AUTO 21005KT 10SM CLR M11/M22 A3020 RMK AO2 SLP236 T11061217=
KLEW 230156Z AUTO 32021G36KT 10SM CLR M09/M19 A3017 RMK AO2 PK WND 33036/0156
 SLP234 T10941194 FZRANO $=
KMLT 230153Z AUTO 32011KT 10SM CLR M12/M21 A3009 RMK AO2 PK WND 34026/0116
 SLP202 T11171211=
KPQI 230156Z AUTO 31010G18KT 10SM CLR M13/M20 A3006 RMK AO2 SLP228 T11281200
 FZRANO=
KPWM 230151Z 32014G31KT 10SM CLR M08/M21 A3020 RMK AO2 PK WND 32032/0137 SLP229
 T10831206 $=
KRKD 230156Z AUTO 32012G22KT 290V360 10SM CLR M09/M21 A3011 RMK AO2 PK WND
 29030/0107 SLP198 T10941206 FZRANO=
KSFM 230156Z AUTO 28006KT 10SM CLR M11/M20 A3022 RMK AO2 SLP245 T11061200
 FZRANO=
KWVL 230156Z AUTO 33015G19KT 10SM CLR M11/M22 A3012 RMK AO2 SLP240 T11061217
 FZRANO=